sensor_id;sensor_type;location;lat;lon;timestamp;P1;durP1;ratioP1;P2;durP2;ratioP2
79638;SDS011;69114;49.108;8.280;2023-12-29T00:02:19;10.20;;;7.07;;
79638;SDS011;69114;49.108;8.280;2023-12-29T00:04:44;8.50;;;6.50;;
79638;SDS011;69114;49.108;8.280;2023-12-29T00:07:10;12.98;;;7.82;;
79638;SDS011;69114;49.108;8.280;2023-12-29T00:09:35;10.38;;;7.82;;
79638;SDS011;69114;49.108;8.280;2023-12-29T00:12:05;11.57;;;7.68;;
79638;SDS011;69114;49.108;8.280;2023-12-29T00:14:32;11.40;;;7.32;;
79638;SDS011;69114;49.108;8.280;2023-12-29T00:16:57;11.35;;;7.30;;
79638;SDS011;69114;49.108;8.280;2023-12-29T00:19:23;10.23;;;7.75;;
79638;SDS011;69114;49.108;8.280;2023-12-29T00:21:48;11.75;;;7.40;;
79638;SDS011;69114;49.108;8.280;2023-12-29T00:24:13;10.68;;;7.18;;
79638;SDS011;69114;49.108;8.280;2023-12-29T00:26:39;9.90;;;6.80;;
79638;SDS011;69114;49.108;8.280;2023-12-29T00:29:04;12.60;;;7.72;;
79638;SDS011;69114;49.108;8.280;2023-12-29T00:31:31;11.32;;;7.57;;
79638;SDS011;69114;49.108;8.280;2023-12-29T00:33:56;10.20;;;6.72;;
79638;SDS011;69114;49.108;8.280;2023-12-29T00:36:22;11.85;;;7.75;;
79638;SDS011;69114;49.108;8.280;2023-12-29T00:38:47;10.73;;;7.20;;
79638;SDS011;69114;49.108;8.280;2023-12-29T00:41:13;9.52;;;7.10;;
79638;SDS011;69114;49.108;8.280;2023-12-29T00:43:38;10.88;;;6.97;;
79638;SDS011;69114;49.108;8.280;2023-12-29T00:46:07;10.85;;;7.15;;
79638;SDS011;69114;49.108;8.280;2023-12-29T00:48:33;9.35;;;6.63;;
79638;SDS011;69114;49.108;8.280;2023-12-29T00:51:02;9.80;;;6.15;;
79638;SDS011;69114;49.108;8.280;2023-12-29T00:53:31;10.27;;;6.45;;
79638;SDS011;69114;49.108;8.280;2023-12-29T00:55:58;8.45;;;6.35;;
79638;SDS011;69114;49.108;8.280;2023-12-29T00:58:24;9.88;;;6.07;;
79638;SDS011;69114;49.108;8.280;2023-12-29T01:00:50;8.55;;;5.72;;
79638;SDS011;69114;49.108;8.280;2023-12-29T01:03:15;8.93;;;6.18;;
79638;SDS011;69114;49.108;8.280;2023-12-29T01:05:40;7.60;;;5.97;;
79638;SDS011;69114;49.108;8.280;2023-12-29T01:08:06;8.73;;;6.28;;
79638;SDS011;69114;49.108;8.280;2023-12-29T01:10:31;9.57;;;6.00;;
79638;SDS011;69114;49.108;8.280;2023-12-29T01:12:56;8.17;;;5.37;;
79638;SDS011;69114;49.108;8.280;2023-12-29T01:15:22;7.85;;;5.72;;
79638;SDS011;69114;49.108;8.280;2023-12-29T01:17:47;8.88;;;5.47;;
79638;SDS011;69114;49.108;8.280;2023-12-29T01:20:12;7.72;;;5.07;;
79638;SDS011;69114;49.108;8.280;2023-12-29T01:22:38;6.95;;;4.55;;
79638;SDS011;69114;49.108;8.280;2023-12-29T01:25:03;8.48;;;5.57;;
79638;SDS011;69114;49.108;8.280;2023-12-29T01:27:29;7.75;;;5.03;;
79638;SDS011;69114;49.108;8.280;2023-12-29T01:29:55;7.50;;;4.80;;
79638;SDS011;69114;49.108;8.280;2023-12-29T01:32:20;12.02;;;5.13;;
79638;SDS011;69114;49.108;8.280;2023-12-29T01:34:46;7.78;;;5.35;;
79638;SDS011;69114;49.108;8.280;2023-12-29T01:37:11;6.60;;;4.85;;
79638;SDS011;69114;49.108;8.280;2023-12-29T01:39:37;7.90;;;5.22;;
79638;SDS011;69114;49.108;8.280;2023-12-29T01:42:02;7.10;;;4.75;;
79638;SDS011;69114;49.108;8.280;2023-12-29T01:44:28;7.80;;;4.47;;
79638;SDS011;69114;49.108;8.280;2023-12-29T01:46:54;10.50;;;5.47;;
79638;SDS011;69114;49.108;8.280;2023-12-29T01:49:23;6.68;;;4.90;;
79638;SDS011;69114;49.108;8.280;2023-12-29T01:51:49;8.50;;;6.15;;
79638;SDS011;69114;49.108;8.280;2023-12-29T01:54:17;6.97;;;5.28;;
79638;SDS011;69114;49.108;8.280;2023-12-29T01:56:45;6.57;;;4.40;;
79638;SDS011;69114;49.108;8.280;2023-12-29T01:59:11;7.45;;;4.90;;
79638;SDS011;69114;49.108;8.280;2023-12-29T02:01:37;6.07;;;4.35;;
79638;SDS011;69114;49.108;8.280;2023-12-29T02:04:05;6.47;;;4.20;;
79638;SDS011;69114;49.108;8.280;2023-12-29T02:06:31;9.10;;;5.10;;
79638;SDS011;69114;49.108;8.280;2023-12-29T02:08:59;7.15;;;4.80;;
79638;SDS011;69114;49.108;8.280;2023-12-29T02:11:24;6.38;;;4.53;;
79638;SDS011;69114;49.108;8.280;2023-12-29T02:13:50;8.70;;;5.68;;
79638;SDS011;69114;49.108;8.280;2023-12-29T02:16:17;7.53;;;4.85;;
79638;SDS011;69114;49.108;8.280;2023-12-29T02:18:52;6.35;;;4.50;;
79638;SDS011;69114;49.108;8.280;2023-12-29T02:21:23;6.68;;;4.78;;
79638;SDS011;69114;49.108;8.280;2023-12-29T02:23:49;9.30;;;4.13;;
79638;SDS011;69114;49.108;8.280;2023-12-29T02:26:15;5.70;;;4.18;;
79638;SDS011;69114;49.108;8.280;2023-12-29T02:28:44;8.18;;;4.85;;
79638;SDS011;69114;49.108;8.280;2023-12-29T02:31:18;5.80;;;4.28;;
79638;SDS011;69114;49.108;8.280;2023-12-29T02:33:48;6.50;;;3.63;;
79638;SDS011;69114;49.108;8.280;2023-12-29T02:36:17;5.70;;;4.25;;
79638;SDS011;69114;49.108;8.280;2023-12-29T02:38:44;6.40;;;4.05;;
79638;SDS011;69114;49.108;8.280;2023-12-29T02:41:09;5.35;;;4.30;;
79638;SDS011;69114;49.108;8.280;2023-12-29T02:43:38;7.50;;;3.92;;
79638;SDS011;69114;49.108;8.280;2023-12-29T02:46:03;6.68;;;4.57;;
79638;SDS011;69114;49.108;8.280;2023-12-29T02:48:28;7.22;;;4.35;;
79638;SDS011;69114;49.108;8.280;2023-12-29T02:50:54;6.93;;;3.93;;
79638;SDS011;69114;49.108;8.280;2023-12-29T02:53:19;6.33;;;3.87;;
79638;SDS011;69114;49.108;8.280;2023-12-29T02:55:45;6.63;;;4.05;;
79638;SDS011;69114;49.108;8.280;2023-12-29T02:58:10;6.72;;;4.10;;
79638;SDS011;69114;49.108;8.280;2023-12-29T03:00:36;6.70;;;4.38;;
79638;SDS011;69114;49.108;8.280;2023-12-29T03:03:01;6.40;;;4.20;;
79638;SDS011;69114;49.108;8.280;2023-12-29T03:05:26;5.90;;;4.23;;
79638;SDS011;69114;49.108;8.280;2023-12-29T03:07:51;5.70;;;4.33;;
79638;SDS011;69114;49.108;8.280;2023-12-29T03:10:17;9.18;;;4.50;;
79638;SDS011;69114;49.108;8.280;2023-12-29T03:12:42;5.53;;;4.38;;
79638;SDS011;69114;49.108;8.280;2023-12-29T03:15:08;5.87;;;4.03;;
79638;SDS011;69114;49.108;8.280;2023-12-29T03:17:33;5.88;;;5.05;;
79638;SDS011;69114;49.108;8.280;2023-12-29T03:19:59;5.93;;;4.07;;
79638;SDS011;69114;49.108;8.280;2023-12-29T03:22:24;6.95;;;4.93;;
79638;SDS011;69114;49.108;8.280;2023-12-29T03:24:49;7.07;;;4.43;;
79638;SDS011;69114;49.108;8.280;2023-12-29T03:27:15;6.30;;;4.47;;
79638;SDS011;69114;49.108;8.280;2023-12-29T03:29:40;6.47;;;4.45;;
79638;SDS011;69114;49.108;8.280;2023-12-29T03:32:05;6.57;;;4.47;;
79638;SDS011;69114;49.108;8.280;2023-12-29T03:34:32;6.40;;;4.28;;
79638;SDS011;69114;49.108;8.280;2023-12-29T03:36:57;6.05;;;4.32;;
79638;SDS011;69114;49.108;8.280;2023-12-29T03:39:23;5.27;;;4.40;;
79638;SDS011;69114;49.108;8.280;2023-12-29T03:41:48;5.65;;;4.32;;
79638;SDS011;69114;49.108;8.280;2023-12-29T03:44:13;7.15;;;4.38;;
79638;SDS011;69114;49.108;8.280;2023-12-29T03:46:39;6.55;;;4.63;;
79638;SDS011;69114;49.108;8.280;2023-12-29T03:49:05;5.40;;;3.80;;
79638;SDS011;69114;49.108;8.280;2023-12-29T03:51:30;6.78;;;4.32;;
79638;SDS011;69114;49.108;8.280;2023-12-29T03:53:55;7.07;;;4.68;;
79638;SDS011;69114;49.108;8.280;2023-12-29T03:56:23;4.95;;;4.03;;
79638;SDS011;69114;49.108;8.280;2023-12-29T03:58:48;6.90;;;4.65;;
79638;SDS011;69114;49.108;8.280;2023-12-29T04:01:14;7.22;;;4.53;;
79638;SDS011;69114;49.108;8.280;2023-12-29T04:03:41;4.45;;;3.85;;
79638;SDS011;69114;49.108;8.280;2023-12-29T04:06:07;4.53;;;3.25;;
79638;SDS011;69114;49.108;8.280;2023-12-29T04:08:33;6.10;;;3.83;;
79638;SDS011;69114;49.108;8.280;2023-12-29T04:10:59;6.32;;;3.90;;
79638;SDS011;69114;49.108;8.280;2023-12-29T04:13:24;4.53;;;3.67;;
79638;SDS011;69114;49.108;8.280;2023-12-29T04:15:49;5.18;;;3.50;;
79638;SDS011;69114;49.108;8.280;2023-12-29T04:18:15;5.10;;;3.55;;
79638;SDS011;69114;49.108;8.280;2023-12-29T04:20:40;5.75;;;3.72;;
79638;SDS011;69114;49.108;8.280;2023-12-29T04:23:06;5.10;;;3.60;;
79638;SDS011;69114;49.108;8.280;2023-12-29T04:25:32;4.28;;;3.63;;
79638;SDS011;69114;49.108;8.280;2023-12-29T04:27:58;4.63;;;3.83;;
79638;SDS011;69114;49.108;8.280;2023-12-29T04:30:23;6.43;;;4.15;;
79638;SDS011;69114;49.108;8.280;2023-12-29T04:32:49;5.55;;;4.13;;
79638;SDS011;69114;49.108;8.280;2023-12-29T04:35:14;6.30;;;3.80;;
79638;SDS011;69114;49.108;8.280;2023-12-29T04:37:40;10.95;;;4.78;;
79638;SDS011;69114;49.108;8.280;2023-12-29T04:40:06;7.65;;;5.07;;
79638;SDS011;69114;49.108;8.280;2023-12-29T04:42:32;8.35;;;5.20;;
79638;SDS011;69114;49.108;8.280;2023-12-29T04:44:57;7.60;;;4.95;;
79638;SDS011;69114;49.108;8.280;2023-12-29T04:47:22;6.90;;;4.97;;
79638;SDS011;69114;49.108;8.280;2023-12-29T04:49:48;7.30;;;4.93;;
79638;SDS011;69114;49.108;8.280;2023-12-29T04:52:13;8.27;;;6.07;;
79638;SDS011;69114;49.108;8.280;2023-12-29T04:54:38;7.65;;;5.28;;
79638;SDS011;69114;49.108;8.280;2023-12-29T04:57:04;9.25;;;5.78;;
79638;SDS011;69114;49.108;8.280;2023-12-29T04:59:29;10.32;;;6.65;;
79638;SDS011;69114;49.108;8.280;2023-12-29T05:01:55;8.53;;;6.10;;
79638;SDS011;69114;49.108;8.280;2023-12-29T05:04:20;10.57;;;6.97;;
79638;SDS011;69114;49.108;8.280;2023-12-29T05:06:45;10.05;;;6.22;;
79638;SDS011;69114;49.108;8.280;2023-12-29T05:09:11;10.20;;;6.47;;
79638;SDS011;69114;49.108;8.280;2023-12-29T05:11:36;8.57;;;5.82;;
79638;SDS011;69114;49.108;8.280;2023-12-29T05:14:01;10.77;;;6.03;;
79638;SDS011;69114;49.108;8.280;2023-12-29T05:16:27;8.50;;;6.00;;
79638;SDS011;69114;49.108;8.280;2023-12-29T05:18:52;9.48;;;6.15;;
79638;SDS011;69114;49.108;8.280;2023-12-29T05:21:17;8.53;;;5.87;;
79638;SDS011;69114;49.108;8.280;2023-12-29T05:23:44;7.22;;;5.55;;
79638;SDS011;69114;49.108;8.280;2023-12-29T05:26:10;11.00;;;6.70;;
79638;SDS011;69114;49.108;8.280;2023-12-29T05:28:35;10.55;;;6.60;;
79638;SDS011;69114;49.108;8.280;2023-12-29T05:31:01;10.38;;;6.47;;
79638;SDS011;69114;49.108;8.280;2023-12-29T05:33:29;10.80;;;6.43;;
79638;SDS011;69114;49.108;8.280;2023-12-29T05:35:55;10.43;;;6.28;;
79638;SDS011;69114;49.108;8.280;2023-12-29T05:38:20;12.38;;;6.43;;
79638;SDS011;69114;49.108;8.280;2023-12-29T05:40:46;11.13;;;6.30;;
79638;SDS011;69114;49.108;8.280;2023-12-29T05:43:11;10.48;;;6.78;;
79638;SDS011;69114;49.108;8.280;2023-12-29T05:45:36;10.50;;;6.00;;
79638;SDS011;69114;49.108;8.280;2023-12-29T05:48:02;10.10;;;6.30;;
79638;SDS011;69114;49.108;8.280;2023-12-29T05:50:27;8.45;;;5.50;;
79638;SDS011;69114;49.108;8.280;2023-12-29T05:52:53;8.02;;;5.65;;
79638;SDS011;69114;49.108;8.280;2023-12-29T05:55:18;8.30;;;5.40;;
79638;SDS011;69114;49.108;8.280;2023-12-29T05:57:44;8.60;;;5.32;;
79638;SDS011;69114;49.108;8.280;2023-12-29T06:00:10;8.35;;;5.90;;
79638;SDS011;69114;49.108;8.280;2023-12-29T06:02:39;7.32;;;5.45;;
79638;SDS011;69114;49.108;8.280;2023-12-29T06:05:10;9.02;;;5.93;;
79638;SDS011;69114;49.108;8.280;2023-12-29T06:07:35;7.70;;;5.78;;
79638;SDS011;69114;49.108;8.280;2023-12-29T06:10:01;8.93;;;6.55;;
79638;SDS011;69114;49.108;8.280;2023-12-29T06:12:26;9.40;;;5.97;;
79638;SDS011;69114;49.108;8.280;2023-12-29T06:14:52;7.85;;;6.22;;
79638;SDS011;69114;49.108;8.280;2023-12-29T06:17:17;8.85;;;5.82;;
79638;SDS011;69114;49.108;8.280;2023-12-29T06:19:42;8.65;;;4.80;;
79638;SDS011;69114;49.108;8.280;2023-12-29T06:22:08;8.18;;;5.43;;
79638;SDS011;69114;49.108;8.280;2023-12-29T06:24:45;6.70;;;4.97;;
79638;SDS011;69114;49.108;8.280;2023-12-29T06:27:11;8.95;;;5.72;;
79638;SDS011;69114;49.108;8.280;2023-12-29T06:29:36;10.13;;;5.97;;
79638;SDS011;69114;49.108;8.280;2023-12-29T06:32:02;8.35;;;5.75;;
79638;SDS011;69114;49.108;8.280;2023-12-29T06:34:29;9.27;;;5.60;;
79638;SDS011;69114;49.108;8.280;2023-12-29T06:36:54;12.63;;;5.45;;
79638;SDS011;69114;49.108;8.280;2023-12-29T06:39:19;7.60;;;5.40;;
79638;SDS011;69114;49.108;8.280;2023-12-29T06:41:45;7.95;;;6.20;;
79638;SDS011;69114;49.108;8.280;2023-12-29T06:44:10;6.70;;;5.18;;
79638;SDS011;69114;49.108;8.280;2023-12-29T06:46:38;9.98;;;5.88;;
79638;SDS011;69114;49.108;8.280;2023-12-29T06:49:04;8.90;;;5.75;;
79638;SDS011;69114;49.108;8.280;2023-12-29T06:51:31;12.93;;;6.00;;
79638;SDS011;69114;49.108;8.280;2023-12-29T06:53:56;9.95;;;5.18;;
79638;SDS011;69114;49.108;8.280;2023-12-29T06:56:22;10.38;;;5.72;;
79638;SDS011;69114;49.108;8.280;2023-12-29T06:58:47;9.13;;;5.78;;
79638;SDS011;69114;49.108;8.280;2023-12-29T07:01:13;9.73;;;5.25;;
79638;SDS011;69114;49.108;8.280;2023-12-29T07:03:38;9.32;;;5.88;;
79638;SDS011;69114;49.108;8.280;2023-12-29T07:06:04;10.90;;;5.95;;
79638;SDS011;69114;49.108;8.280;2023-12-29T07:08:30;10.25;;;5.82;;
79638;SDS011;69114;49.108;8.280;2023-12-29T07:10:55;12.20;;;6.10;;
79638;SDS011;69114;49.108;8.280;2023-12-29T07:13:21;8.95;;;6.78;;
79638;SDS011;69114;49.108;8.280;2023-12-29T07:15:47;8.38;;;6.07;;
79638;SDS011;69114;49.108;8.280;2023-12-29T07:18:13;12.70;;;6.60;;
79638;SDS011;69114;49.108;8.280;2023-12-29T07:20:38;9.30;;;6.65;;
79638;SDS011;69114;49.108;8.280;2023-12-29T07:23:04;8.15;;;6.00;;
79638;SDS011;69114;49.108;8.280;2023-12-29T07:25:30;11.85;;;6.80;;
79638;SDS011;69114;49.108;8.280;2023-12-29T07:27:55;10.73;;;7.00;;
79638;SDS011;69114;49.108;8.280;2023-12-29T07:30:21;10.93;;;7.03;;
79638;SDS011;69114;49.108;8.280;2023-12-29T07:32:46;10.45;;;6.22;;
79638;SDS011;69114;49.108;8.280;2023-12-29T07:35:11;12.15;;;7.30;;
79638;SDS011;69114;49.108;8.280;2023-12-29T07:37:40;12.20;;;7.68;;
79638;SDS011;69114;49.108;8.280;2023-12-29T07:40:05;10.82;;;6.72;;
79638;SDS011;69114;49.108;8.280;2023-12-29T07:42:33;7.78;;;5.90;;
79638;SDS011;69114;49.108;8.280;2023-12-29T07:44:58;12.15;;;6.70;;
79638;SDS011;69114;49.108;8.280;2023-12-29T07:47:23;10.15;;;6.50;;
79638;SDS011;69114;49.108;8.280;2023-12-29T07:49:49;8.02;;;5.45;;
79638;SDS011;69114;49.108;8.280;2023-12-29T07:52:14;7.88;;;5.90;;
79638;SDS011;69114;49.108;8.280;2023-12-29T07:54:39;8.90;;;6.05;;
79638;SDS011;69114;49.108;8.280;2023-12-29T07:57:05;8.13;;;5.70;;
79638;SDS011;69114;49.108;8.280;2023-12-29T07:59:30;7.53;;;5.47;;
79638;SDS011;69114;49.108;8.280;2023-12-29T08:01:55;8.80;;;5.90;;
79638;SDS011;69114;49.108;8.280;2023-12-29T08:04:22;11.05;;;6.30;;
79638;SDS011;69114;49.108;8.280;2023-12-29T08:06:48;8.35;;;6.28;;
79638;SDS011;69114;49.108;8.280;2023-12-29T08:09:14;9.68;;;6.63;;
79638;SDS011;69114;49.108;8.280;2023-12-29T08:11:39;10.48;;;6.40;;
79638;SDS011;69114;49.108;8.280;2023-12-29T08:14:06;8.63;;;6.25;;
79638;SDS011;69114;49.108;8.280;2023-12-29T08:16:37;9.10;;;6.60;;
79638;SDS011;69114;49.108;8.280;2023-12-29T08:21:28;9.73;;;6.43;;
79638;SDS011;69114;49.108;8.280;2023-12-29T08:23:53;8.80;;;6.10;;
79638;SDS011;69114;49.108;8.280;2023-12-29T08:26:19;10.73;;;6.40;;
79638;SDS011;69114;49.108;8.280;2023-12-29T08:28:44;10.68;;;6.80;;
79638;SDS011;69114;49.108;8.280;2023-12-29T08:31:10;10.48;;;7.32;;
79638;SDS011;69114;49.108;8.280;2023-12-29T08:33:35;9.68;;;6.93;;
79638;SDS011;69114;49.108;8.280;2023-12-29T08:36:01;8.60;;;7.00;;
79638;SDS011;69114;49.108;8.280;2023-12-29T08:38:28;9.85;;;6.80;;
79638;SDS011;69114;49.108;8.280;2023-12-29T08:40:54;10.38;;;6.75;;
79638;SDS011;69114;49.108;8.280;2023-12-29T08:43:19;8.07;;;6.07;;
79638;SDS011;69114;49.108;8.280;2023-12-29T08:45:49;9.32;;;7.10;;
79638;SDS011;69114;49.108;8.280;2023-12-29T08:48:15;7.88;;;6.30;;
79638;SDS011;69114;49.108;8.280;2023-12-29T08:50:40;9.32;;;6.18;;
79638;SDS011;69114;49.108;8.280;2023-12-29T08:53:07;8.23;;;6.00;;
79638;SDS011;69114;49.108;8.280;2023-12-29T08:55:32;9.38;;;5.55;;
79638;SDS011;69114;49.108;8.280;2023-12-29T08:57:58;8.73;;;6.03;;
79638;SDS011;69114;49.108;8.280;2023-12-29T09:00:23;6.40;;;5.03;;
79638;SDS011;69114;49.108;8.280;2023-12-29T09:02:48;6.27;;;4.87;;
79638;SDS011;69114;49.108;8.280;2023-12-29T09:05:14;7.60;;;5.20;;
79638;SDS011;69114;49.108;8.280;2023-12-29T09:07:39;6.90;;;4.70;;
79638;SDS011;69114;49.108;8.280;2023-12-29T09:10:05;6.57;;;5.20;;
79638;SDS011;69114;49.108;8.280;2023-12-29T09:12:37;7.15;;;4.88;;
79638;SDS011;69114;49.108;8.280;2023-12-29T09:15:04;6.40;;;4.35;;
79638;SDS011;69114;49.108;8.280;2023-12-29T09:17:30;6.20;;;4.57;;
79638;SDS011;69114;49.108;8.280;2023-12-29T09:19:55;7.10;;;4.40;;
79638;SDS011;69114;49.108;8.280;2023-12-29T09:22:21;6.93;;;4.28;;
79638;SDS011;69114;49.108;8.280;2023-12-29T09:24:46;8.23;;;4.60;;
79638;SDS011;69114;49.108;8.280;2023-12-29T09:27:11;6.85;;;4.50;;
79638;SDS011;69114;49.108;8.280;2023-12-29T09:29:37;6.90;;;4.60;;
79638;SDS011;69114;49.108;8.280;2023-12-29T09:32:02;5.80;;;4.22;;
79638;SDS011;69114;49.108;8.280;2023-12-29T09:34:28;6.47;;;4.80;;
79638;SDS011;69114;49.108;8.280;2023-12-29T09:36:53;5.97;;;4.28;;
79638;SDS011;69114;49.108;8.280;2023-12-29T09:39:19;6.03;;;4.00;;
79638;SDS011;69114;49.108;8.280;2023-12-29T09:41:45;5.55;;;4.10;;
79638;SDS011;69114;49.108;8.280;2023-12-29T09:44:15;4.30;;;3.45;;
79638;SDS011;69114;49.108;8.280;2023-12-29T09:46:41;4.30;;;3.63;;
79638;SDS011;69114;49.108;8.280;2023-12-29T09:49:08;6.95;;;4.47;;
79638;SDS011;69114;49.108;8.280;2023-12-29T09:51:34;5.15;;;4.25;;
79638;SDS011;69114;49.108;8.280;2023-12-29T09:54:02;6.55;;;4.80;;
79638;SDS011;69114;49.108;8.280;2023-12-29T09:56:28;6.70;;;4.68;;
79638;SDS011;69114;49.108;8.280;2023-12-29T09:58:53;7.72;;;3.85;;
79638;SDS011;69114;49.108;8.280;2023-12-29T10:01:20;6.85;;;3.75;;
79638;SDS011;69114;49.108;8.280;2023-12-29T10:03:47;4.95;;;3.90;;
79638;SDS011;69114;49.108;8.280;2023-12-29T10:06:13;6.22;;;3.83;;
79638;SDS011;69114;49.108;8.280;2023-12-29T10:08:45;4.50;;;3.75;;
79638;SDS011;69114;49.108;8.280;2023-12-29T10:11:12;5.22;;;3.63;;
79638;SDS011;69114;49.108;8.280;2023-12-29T10:13:43;4.18;;;3.17;;
79638;SDS011;69114;49.108;8.280;2023-12-29T10:21:48;4.85;;;3.65;;
79638;SDS011;69114;49.108;8.280;2023-12-29T10:24:20;4.30;;;2.92;;
79638;SDS011;69114;49.108;8.280;2023-12-29T10:26:47;4.22;;;3.22;;
79638;SDS011;69114;49.108;8.280;2023-12-29T10:29:12;4.68;;;3.03;;
79638;SDS011;69114;49.108;8.280;2023-12-29T10:31:38;4.72;;;3.58;;
79638;SDS011;69114;49.108;8.280;2023-12-29T10:34:20;3.65;;;2.53;;
79638;SDS011;69114;49.108;8.280;2023-12-29T10:36:53;3.95;;;3.00;;
79638;SDS011;69114;49.108;8.280;2023-12-29T10:39:19;3.50;;;2.60;;
79638;SDS011;69114;49.108;8.280;2023-12-29T10:41:44;3.17;;;2.73;;
79638;SDS011;69114;49.108;8.280;2023-12-29T10:44:09;3.55;;;2.63;;
79638;SDS011;69114;49.108;8.280;2023-12-29T10:46:35;3.08;;;2.10;;
79638;SDS011;69114;49.108;8.280;2023-12-29T10:49:11;2.70;;;2.40;;
79638;SDS011;69114;49.108;8.280;2023-12-29T10:51:37;3.65;;;2.33;;
79638;SDS011;69114;49.108;8.280;2023-12-29T10:54:04;3.72;;;2.30;;
79638;SDS011;69114;49.108;8.280;2023-12-29T10:56:30;3.10;;;2.10;;
79638;SDS011;69114;49.108;8.280;2023-12-29T10:58:59;2.72;;;1.98;;
79638;SDS011;69114;49.108;8.280;2023-12-29T11:01:32;4.05;;;2.10;;
79638;SDS011;69114;49.108;8.280;2023-12-29T11:04:00;3.67;;;2.22;;
79638;SDS011;69114;49.108;8.280;2023-12-29T11:06:26;2.58;;;2.03;;
79638;SDS011;69114;49.108;8.280;2023-12-29T11:08:53;2.67;;;2.05;;
79638;SDS011;69114;49.108;8.280;2023-12-29T11:11:19;3.17;;;2.30;;
79638;SDS011;69114;49.108;8.280;2023-12-29T11:13:48;2.75;;;2.10;;
79638;SDS011;69114;49.108;8.280;2023-12-29T11:16:14;2.45;;;1.98;;
79638;SDS011;69114;49.108;8.280;2023-12-29T11:18:43;2.88;;;2.20;;
79638;SDS011;69114;49.108;8.280;2023-12-29T11:21:10;2.85;;;1.75;;
79638;SDS011;69114;49.108;8.280;2023-12-29T11:23:35;4.78;;;2.28;;
79638;SDS011;69114;49.108;8.280;2023-12-29T11:26:01;3.53;;;2.10;;
79638;SDS011;69114;49.108;8.280;2023-12-29T11:28:28;3.05;;;2.22;;
79638;SDS011;69114;49.108;8.280;2023-12-29T11:30:53;2.88;;;2.30;;
79638;SDS011;69114;49.108;8.280;2023-12-29T11:33:28;2.78;;;2.22;;
79638;SDS011;69114;49.108;8.280;2023-12-29T11:36:00;2.50;;;1.90;;
79638;SDS011;69114;49.108;8.280;2023-12-29T11:38:45;2.55;;;1.98;;
79638;SDS011;69114;49.108;8.280;2023-12-29T11:44:24;3.17;;;2.08;;
79638;SDS011;69114;49.108;8.280;2023-12-29T11:46:55;2.92;;;1.90;;
79638;SDS011;69114;49.108;8.280;2023-12-29T11:49:22;2.53;;;1.80;;
79638;SDS011;69114;49.108;8.280;2023-12-29T11:51:47;3.03;;;2.03;;
79638;SDS011;69114;49.108;8.280;2023-12-29T11:54:22;2.75;;;1.85;;
79638;SDS011;69114;49.108;8.280;2023-12-29T11:56:49;2.83;;;2.10;;
79638;SDS011;69114;49.108;8.280;2023-12-29T11:59:15;3.33;;;2.03;;
79638;SDS011;69114;49.108;8.280;2023-12-29T12:01:42;3.13;;;1.98;;
79638;SDS011;69114;49.108;8.280;2023-12-29T12:07:06;2.55;;;1.98;;
79638;SDS011;69114;49.108;8.280;2023-12-29T12:09:38;2.35;;;1.83;;
79638;SDS011;69114;49.108;8.280;2023-12-29T12:12:04;3.17;;;2.22;;
79638;SDS011;69114;49.108;8.280;2023-12-29T12:14:46;3.22;;;2.10;;
79638;SDS011;69114;49.108;8.280;2023-12-29T12:17:35;3.38;;;2.00;;
79638;SDS011;69114;49.108;8.280;2023-12-29T12:20:07;3.13;;;2.10;;
79638;SDS011;69114;49.108;8.280;2023-12-29T12:25:02;2.70;;;2.03;;
79638;SDS011;69114;49.108;8.280;2023-12-29T12:27:28;2.72;;;2.03;;
79638;SDS011;69114;49.108;8.280;2023-12-29T12:29:55;3.22;;;1.88;;
79638;SDS011;69114;49.108;8.280;2023-12-29T12:32:22;2.28;;;1.80;;
79638;SDS011;69114;49.108;8.280;2023-12-29T12:34:49;2.50;;;1.90;;
79638;SDS011;69114;49.108;8.280;2023-12-29T12:37:27;3.88;;;2.20;;
79638;SDS011;69114;49.108;8.280;2023-12-29T12:39:53;2.80;;;2.15;;
79638;SDS011;69114;49.108;8.280;2023-12-29T12:42:20;4.28;;;2.05;;
79638;SDS011;69114;49.108;8.280;2023-12-29T12:44:54;2.70;;;2.10;;
79638;SDS011;69114;49.108;8.280;2023-12-29T12:47:25;4.07;;;2.20;;
79638;SDS011;69114;49.108;8.280;2023-12-29T12:52:23;2.58;;;1.70;;
79638;SDS011;69114;49.108;8.280;2023-12-29T12:54:49;3.28;;;2.05;;
79638;SDS011;69114;49.108;8.280;2023-12-29T12:57:19;3.08;;;2.10;;
79638;SDS011;69114;49.108;8.280;2023-12-29T12:59:45;2.85;;;2.00;;
79638;SDS011;69114;49.108;8.280;2023-12-29T13:02:10;3.25;;;2.20;;
79638;SDS011;69114;49.108;8.280;2023-12-29T13:04:38;2.75;;;1.88;;
79638;SDS011;69114;49.108;8.280;2023-12-29T13:07:05;3.30;;;2.20;;
79638;SDS011;69114;49.108;8.280;2023-12-29T13:09:31;3.40;;;2.20;;
79638;SDS011;69114;49.108;8.280;2023-12-29T13:12:12;2.63;;;1.80;;
79638;SDS011;69114;49.108;8.280;2023-12-29T13:14:41;3.60;;;1.83;;
79638;SDS011;69114;49.108;8.280;2023-12-29T13:17:12;2.80;;;2.50;;
79638;SDS011;69114;49.108;8.280;2023-12-29T13:19:39;2.70;;;1.90;;
79638;SDS011;69114;49.108;8.280;2023-12-29T13:22:06;3.38;;;2.20;;
79638;SDS011;69114;49.108;8.280;2023-12-29T13:24:32;2.95;;;2.28;;
79638;SDS011;69114;49.108;8.280;2023-12-29T13:27:04;4.35;;;3.20;;
79638;SDS011;69114;49.108;8.280;2023-12-29T13:29:30;4.03;;;2.75;;
79638;SDS011;69114;49.108;8.280;2023-12-29T13:32:00;7.13;;;5.70;;
79638;SDS011;69114;49.108;8.280;2023-12-29T13:37:36;3.15;;;2.63;;
79638;SDS011;69114;49.108;8.280;2023-12-29T13:42:44;3.92;;;2.92;;
79638;SDS011;69114;49.108;8.280;2023-12-29T13:45:12;2.42;;;2.00;;
79638;SDS011;69114;49.108;8.280;2023-12-29T13:47:39;2.95;;;2.30;;
79638;SDS011;69114;49.108;8.280;2023-12-29T13:50:04;4.57;;;2.40;;
79638;SDS011;69114;49.108;8.280;2023-12-29T13:52:30;3.75;;;2.65;;
79638;SDS011;69114;49.108;8.280;2023-12-29T13:54:57;2.70;;;2.33;;
79638;SDS011;69114;49.108;8.280;2023-12-29T13:57:35;3.35;;;2.70;;
79638;SDS011;69114;49.108;8.280;2023-12-29T14:00:14;3.05;;;2.13;;
79638;SDS011;69114;49.108;8.280;2023-12-29T14:03:30;2.90;;;1.80;;
79638;SDS011;69114;49.108;8.280;2023-12-29T14:05:52;2.95;;;2.17;;
79638;SDS011;69114;49.108;8.280;2023-12-29T14:10:52;3.20;;;1.95;;
79638;SDS011;69114;49.108;8.280;2023-12-29T14:13:18;3.55;;;3.22;;
79638;SDS011;69114;49.108;8.280;2023-12-29T14:15:45;7.28;;;6.47;;
79638;SDS011;69114;49.108;8.280;2023-12-29T14:18:30;7.72;;;5.80;;
79638;SDS011;69114;49.108;8.280;2023-12-29T14:26:53;5.82;;;3.13;;
79638;SDS011;69114;49.108;8.280;2023-12-29T14:29:19;3.38;;;2.63;;
79638;SDS011;69114;49.108;8.280;2023-12-29T14:31:45;5.00;;;3.38;;
79638;SDS011;69114;49.108;8.280;2023-12-29T14:34:12;4.13;;;3.40;;
79638;SDS011;69114;49.108;8.280;2023-12-29T14:36:41;3.28;;;1.90;;
79638;SDS011;69114;49.108;8.280;2023-12-29T14:39:07;3.42;;;2.65;;
79638;SDS011;69114;49.108;8.280;2023-12-29T14:41:35;2.85;;;2.38;;
79638;SDS011;69114;49.108;8.280;2023-12-29T14:44:01;5.50;;;4.63;;
79638;SDS011;69114;49.108;8.280;2023-12-29T14:46:26;3.88;;;3.47;;
79638;SDS011;69114;49.108;8.280;2023-12-29T14:48:52;2.78;;;2.33;;
79638;SDS011;69114;49.108;8.280;2023-12-29T14:51:18;8.88;;;8.07;;
79638;SDS011;69114;49.108;8.280;2023-12-29T14:53:47;2.65;;;2.13;;
79638;SDS011;69114;49.108;8.280;2023-12-29T14:56:17;4.72;;;2.90;;
79638;SDS011;69114;49.108;8.280;2023-12-29T14:58:42;3.42;;;3.13;;
79638;SDS011;69114;49.108;8.280;2023-12-29T15:01:08;5.30;;;3.15;;
79638;SDS011;69114;49.108;8.280;2023-12-29T15:03:34;3.53;;;2.08;;
79638;SDS011;69114;49.108;8.280;2023-12-29T15:06:00;3.47;;;1.92;;
79638;SDS011;69114;49.108;8.280;2023-12-29T15:08:26;3.00;;;2.03;;
79638;SDS011;69114;49.108;8.280;2023-12-29T15:13:28;3.95;;;2.35;;
79638;SDS011;69114;49.108;8.280;2023-12-29T15:15:55;5.43;;;2.72;;
79638;SDS011;69114;49.108;8.280;2023-12-29T15:18:20;3.85;;;2.25;;
79638;SDS011;69114;49.108;8.280;2023-12-29T15:20:46;5.88;;;3.47;;